createdAt,value
2022-10-19T00:00:00.950Z,21.52
2022-10-19T00:04:53.702Z,21.52
2022-10-19T00:09:46.367Z,21.51
2022-10-19T00:14:38.844Z,21.51
2022-10-19T00:19:31.487Z,21.5
2022-10-19T00:24:24.282Z,21.5
2022-10-19T00:29:16.791Z,21.49
2022-10-19T00:34:09.395Z,21.48
2022-10-19T00:38:56.341Z,21.47
2022-10-19T00:43:51.904Z,21.47
2022-10-19T00:48:44.938Z,21.48
2022-10-19T00:53:39.555Z,21.47
2022-10-19T00:58:31.901Z,21.46
2022-10-19T01:03:24.719Z,21.47
2022-10-19T01:08:17.356Z,21.45
2022-10-19T01:13:10.261Z,21.44
2022-10-19T01:18:02.968Z,21.44
2022-10-19T01:22:55.745Z,21.45
2022-10-19T01:27:50.164Z,21.43
2022-10-19T01:32:42.410Z,21.43
2022-10-19T01:37:35.576Z,21.43
2022-10-19T01:42:28.302Z,21.43
2022-10-19T01:47:21.005Z,21.42
2022-10-19T01:52:13.696Z,21.42
2022-10-19T01:57:06.728Z,21.41
2022-10-19T02:01:59.414Z,21.39
2022-10-19T02:06:51.905Z,21.39
2022-10-19T02:11:46.418Z,21.39
2022-10-19T02:16:39.506Z,21.38
2022-10-19T02:21:31.819Z,21.38
2022-10-19T02:26:18.615Z,21.38
2022-10-19T02:31:12.255Z,21.36
2022-10-19T02:36:05.837Z,21.36
2022-10-19T02:40:58.531Z,21.36
2022-10-19T02:45:51.276Z,21.36
2022-10-19T02:50:44.014Z,21.33
2022-10-19T02:55:36.601Z,21.34
2022-10-19T03:00:28.992Z,21.33
2022-10-19T03:05:21.488Z,21.33
2022-10-19T03:10:14.240Z,21.32
2022-10-19T03:15:06.870Z,21.33
2022-10-19T03:20:01.617Z,21.31
2022-10-19T03:24:53.767Z,21.32
2022-10-19T03:29:46.609Z,21.33
2022-10-19T03:34:39.101Z,21.32
2022-10-19T03:39:31.579Z,21.35
2022-10-19T03:44:23.950Z,21.3
2022-10-19T03:49:16.294Z,21.29
2022-10-19T03:54:08.937Z,21.26
2022-10-19T03:59:01.908Z,21.28
2022-10-19T04:03:54.804Z,21.55
2022-10-19T04:08:47.596Z,21.7
2022-10-19T04:13:40.333Z,21.74
2022-10-19T04:18:33.082Z,21.82
2022-10-19T04:23:25.707Z,21.86
2022-10-19T04:28:18.288Z,21.9
2022-10-19T04:33:10.605Z,21.73
2022-10-19T04:38:03.050Z,21.66
2022-10-19T04:42:55.552Z,21.67
2022-10-19T04:47:48.136Z,21.69
2022-10-19T04:52:40.837Z,21.67
2022-10-19T04:57:33.714Z,21.65
2022-10-19T05:02:25.856Z,21.65
2022-10-19T05:07:18.711Z,21.64
2022-10-19T05:12:11.271Z,21.61
2022-10-19T05:21:56.730Z,21.57
2022-10-19T05:26:49.427Z,21.55
2022-10-19T05:31:41.907Z,21.56
2022-10-19T05:36:34.737Z,21.53
2022-10-19T05:41:27.043Z,21.5
2022-10-19T05:46:19.361Z,21.49
2022-10-19T05:51:12.111Z,21.48
2022-10-19T05:56:04.494Z,21.45
2022-10-19T06:00:56.895Z,21.47
2022-10-19T06:05:49.032Z,21.46
2022-10-19T06:10:41.676Z,21.42
2022-10-19T06:15:34.501Z,21.42
2022-10-19T06:20:27.031Z,21.41
2022-10-19T06:25:19.581Z,21.38
2022-10-19T06:30:11.451Z,21.39
2022-10-19T06:35:04.444Z,21.35
2022-10-19T06:39:57.028Z,21.38
2022-10-19T06:44:49.484Z,21.34
2022-10-19T06:49:42.097Z,21.34
2022-10-19T06:54:34.699Z,21.33
2022-10-19T06:59:27.186Z,21.31
2022-10-19T07:04:19.249Z,21.3
2022-10-19T07:09:11.983Z,21.31
2022-10-19T07:14:04.723Z,21.3
2022-10-19T07:18:57.113Z,21.31
2022-10-19T07:23:49.442Z,21.28
2022-10-19T07:28:42.115Z,21.29
2022-10-19T07:33:34.426Z,21.29
2022-10-19T07:38:27.069Z,21.27
2022-10-19T07:43:19.603Z,21.28
2022-10-19T07:48:12.210Z,21.27
2022-10-19T07:53:04.688Z,21.27
2022-10-19T07:57:57.140Z,21.26
2022-10-19T08:02:59.951Z,21.27
2022-10-19T08:07:42.231Z,21.27
2022-10-19T08:12:34.862Z,21.26
2022-10-19T08:17:27.239Z,21.26
2022-10-19T08:22:19.479Z,21.27
2022-10-19T08:27:11.889Z,21.26
2022-10-19T08:32:04.441Z,21.27
2022-10-19T08:36:56.977Z,21.29
2022-10-19T08:41:49.630Z,21.29
2022-10-19T08:46:42.249Z,21.28
2022-10-19T08:51:34.508Z,21.29
2022-10-19T08:56:46.219Z,21.3
2022-10-19T09:01:19.544Z,21.3
2022-10-19T09:06:12.102Z,21.3
2022-10-19T09:11:04.336Z,21.3
2022-10-19T09:15:56.802Z,21.3
2022-10-19T09:20:49.544Z,21.31
2022-10-19T09:25:41.956Z,21.3
2022-10-19T09:30:34.560Z,21.3
2022-10-19T09:35:27.017Z,21.3
2022-10-19T09:40:19.604Z,21.28
2022-10-19T09:45:12.109Z,21.27
2022-10-19T09:50:04.737Z,21.29
2022-10-19T09:54:57.256Z,21.29
2022-10-19T09:59:49.889Z,21.3
2022-10-19T10:04:42.287Z,21.28
2022-10-19T10:09:34.570Z,21.28
2022-10-19T10:14:26.891Z,21.3
2022-10-19T10:19:19.338Z,21.28
2022-10-19T10:24:11.759Z,21.29
2022-10-19T10:29:04.064Z,21.29
2022-10-19T10:33:56.465Z,21.3
2022-10-19T10:38:48.950Z,21.29
2022-10-19T10:43:41.814Z,21.29
2022-10-19T10:48:34.243Z,21.27
2022-10-19T10:53:26.470Z,21.28
2022-10-19T10:58:19.008Z,21.28
2022-10-19T11:03:11.393Z,21.29
2022-10-19T11:08:04.090Z,21.28
2022-10-19T11:12:56.435Z,21.29
2022-10-19T11:17:48.829Z,21.28
2022-10-19T11:22:41.056Z,21.3
2022-10-19T11:27:33.914Z,21.27
2022-10-19T11:32:26.030Z,21.3
2022-10-19T11:37:18.567Z,21.29
2022-10-19T11:47:03.585Z,21.31
2022-10-19T11:51:55.878Z,21.3
2022-10-19T11:57:02.766Z,21.31
2022-10-19T12:01:41.548Z,21.31
2022-10-19T12:06:34.040Z,21.32
2022-10-19T12:11:26.955Z,21.32
2022-10-19T12:16:19.556Z,21.31
2022-10-19T12:21:11.969Z,21.31
2022-10-19T12:26:04.313Z,21.31
2022-10-19T12:30:56.752Z,21.32
2022-10-19T12:35:49.116Z,21.31
2022-10-19T12:40:35.619Z,21.32
2022-10-19T12:45:29.299Z,21.32
2022-10-19T12:50:22.883Z,21.31
2022-10-19T12:55:15.597Z,21.31
2022-10-19T13:00:08.114Z,21.31
2022-10-19T13:05:00.537Z,21.31
2022-10-19T13:09:53.280Z,21.31
2022-10-19T13:14:45.420Z,21.31
2022-10-19T13:19:34.978Z,21.31
2022-10-19T13:24:28.861Z,21.32
2022-10-19T13:29:21.378Z,21.32
2022-10-19T13:34:13.763Z,21.3
2022-10-19T13:39:06.222Z,21.3
2022-10-19T13:43:58.905Z,21.3
2022-10-19T13:48:51.615Z,21.3
2022-10-19T13:53:44.280Z,21.28
2022-10-19T13:58:36.967Z,21.29
2022-10-19T14:03:29.489Z,21.29
2022-10-19T14:08:21.955Z,21.29
2022-10-19T14:13:14.801Z,21.29
2022-10-19T14:18:07.833Z,21.28
2022-10-19T14:22:59.730Z,21.29
2022-10-19T14:27:52.243Z,21.27
2022-10-19T14:32:44.823Z,21.27
2022-10-19T14:37:37.751Z,21.26
2022-10-19T14:42:30.198Z,21.26
2022-10-19T14:47:22.761Z,21.25
2022-10-19T14:52:15.349Z,21.23
2022-10-19T14:57:08.170Z,21.23
2022-10-19T15:02:00.725Z,21.21
2022-10-19T15:06:55.414Z,21.22
2022-10-19T15:11:47.695Z,21.19
2022-10-19T15:16:40.256Z,21.19
2022-10-19T15:21:33.437Z,21.18
2022-10-19T15:26:19.966Z,21.17
2022-10-19T15:31:13.444Z,21.16
2022-10-19T15:36:09.319Z,21.16
2022-10-19T15:41:03.458Z,21.15
2022-10-19T15:45:55.662Z,21.15
2022-10-19T15:50:42.462Z,21.15
2022-10-19T15:55:35.952Z,21.15
2022-10-19T16:00:29.911Z,21.18
2022-10-19T16:05:22.476Z,21.16
2022-10-19T16:10:15.025Z,21.16
2022-10-19T16:15:07.619Z,21.16
2022-10-19T16:19:54.382Z,21.17
2022-10-19T16:24:49.878Z,21.16
2022-10-19T16:29:45.225Z,21.16
2022-10-19T16:34:37.413Z,21.17
2022-10-19T16:39:30.048Z,21.17
2022-10-19T16:44:22.586Z,21.17
2022-10-19T16:49:17.280Z,21.17
2022-10-19T16:54:09.782Z,21.16
2022-10-19T16:59:04.332Z,21.17
2022-10-19T17:03:56.586Z,21.16
2022-10-19T17:13:45.319Z,21.15
2022-10-19T17:18:31.664Z,21.14
2022-10-19T17:23:25.362Z,21.13
2022-10-19T17:28:13.432Z,21.13
2022-10-19T17:33:08.717Z,21.14
2022-10-19T17:42:54.146Z,21.13
2022-10-19T17:47:46.740Z,21.14
2022-10-19T17:52:39.462Z,21.13
2022-10-19T17:57:32.188Z,21.13
2022-10-19T18:02:24.422Z,21.13
2022-10-19T18:07:16.720Z,21.13
2022-10-19T18:12:04.812Z,21.12
2022-10-19T18:16:57.159Z,21.13
2022-10-19T18:21:50.843Z,21.12
2022-10-19T18:26:43.416Z,21.11
2022-10-19T18:31:36.015Z,21.1
2022-10-19T18:36:28.732Z,21.13
2022-10-19T18:41:15.419Z,21.1
2022-10-19T18:46:08.888Z,21.1
2022-10-19T18:51:02.983Z,21.08
2022-10-19T18:55:55.589Z,21.08
2022-10-19T19:00:47.975Z,21.09
2022-10-19T19:05:40.556Z,21.07
2022-10-19T19:10:35.482Z,21.08
2022-10-19T19:15:27.738Z,21.07
2022-10-19T19:20:14.594Z,21.08
2022-10-19T19:25:08.227Z,21.09
2022-10-19T19:30:02.876Z,21.12
2022-10-19T19:34:55.063Z,21.07
2022-10-19T19:39:47.387Z,21.05
2022-10-19T19:44:40.006Z,21.04
2022-10-19T19:49:32.624Z,21.03
2022-10-19T19:54:25.415Z,21.01
2022-10-19T19:59:18.201Z,21.02
2022-10-19T20:04:10.861Z,21.02
2022-10-19T20:09:05.724Z,21.03
2022-10-19T20:13:57.874Z,20.98
2022-10-19T20:18:52.432Z,20.98
2022-10-19T20:23:44.803Z,20.98
2022-10-19T20:28:37.467Z,20.97
2022-10-19T20:33:30.079Z,20.97
2022-10-19T20:38:22.649Z,20.98
2022-10-19T20:43:15.509Z,20.96
2022-10-19T20:48:08.356Z,20.95
2022-10-19T20:53:00.999Z,20.93
2022-10-19T20:57:53.641Z,20.93
2022-10-19T21:02:46.993Z,20.93
2022-10-19T21:07:39.743Z,20.94
2022-10-19T21:12:26.625Z,20.92
2022-10-19T21:17:20.331Z,20.89
2022-10-19T21:22:14.180Z,20.89
2022-10-19T21:27:07.006Z,20.87
2022-10-19T21:31:59.664Z,20.86
2022-10-19T21:36:52.437Z,20.86
2022-10-19T21:41:44.583Z,20.86
2022-10-19T21:46:37.204Z,20.85
2022-10-19T21:51:29.667Z,20.84
2022-10-19T21:56:24.369Z,20.82
2022-10-19T22:01:16.785Z,20.82
2022-10-19T22:06:09.500Z,20.81
2022-10-19T22:11:02.352Z,20.82
2022-10-19T22:15:49.223Z,20.8
2022-10-19T22:20:42.437Z,20.77
2022-10-19T22:25:33.203Z,20.78
2022-10-19T22:30:26.936Z,20.77
2022-10-19T22:35:19.357Z,20.77
2022-10-19T22:40:11.398Z,20.75
2022-10-19T22:44:58.376Z,20.73
2022-10-19T22:49:52.004Z,20.71
2022-10-19T22:54:45.662Z,20.72
2022-10-19T22:59:38.587Z,20.72
2022-10-19T23:04:31.283Z,20.68
2022-10-19T23:09:23.558Z,20.68
2022-10-19T23:19:09.032Z,20.67
2022-10-19T23:24:01.538Z,20.66
2022-10-19T23:28:48.471Z,20.66
2022-10-19T23:33:42.159Z,20.62
2022-10-19T23:38:35.682Z,20.62
2022-10-19T23:43:30.337Z,20.61
2022-10-19T23:48:22.474Z,20.6
2022-10-19T23:53:14.544Z,20.58
2022-10-19T23:58:01.379Z,20.59
